sensor_id;sensor_type;location;lat;lon;timestamp;P1;durP1;ratioP1;P2;durP2;ratioP2
75289;SDS011;63883;48.996;20.804;2023-11-19T13:57:10;5.40;;;3.60;;
75289;SDS011;63883;48.996;20.804;2023-11-19T13:59:39;6.68;;;4.60;;
75289;SDS011;63883;48.996;20.804;2023-11-19T14:02:06;7.40;;;5.35;;
75289;SDS011;63883;48.996;20.804;2023-11-19T14:04:33;8.00;;;4.63;;
75289;SDS011;63883;48.996;20.804;2023-11-19T14:06:58;8.13;;;5.63;;
75289;SDS011;63883;48.996;20.804;2023-11-19T14:09:24;11.45;;;7.22;;
75289;SDS011;63883;48.996;20.804;2023-11-19T14:11:51;8.43;;;6.30;;
75289;SDS011;63883;48.996;20.804;2023-11-19T14:14:16;9.32;;;6.10;;
75289;SDS011;63883;48.996;20.804;2023-11-19T14:16:42;11.43;;;5.68;;
75289;SDS011;63883;48.996;20.804;2023-11-19T14:19:08;11.65;;;6.75;;
75289;SDS011;63883;48.996;20.804;2023-11-19T14:21:34;9.05;;;5.80;;
75289;SDS011;63883;48.996;20.804;2023-11-19T14:23:59;8.93;;;5.05;;
75289;SDS011;63883;48.996;20.804;2023-11-19T14:26:25;11.02;;;5.60;;
75289;SDS011;63883;48.996;20.804;2023-11-19T14:28:51;10.30;;;5.45;;
75289;SDS011;63883;48.996;20.804;2023-11-19T14:31:16;8.57;;;4.75;;
75289;SDS011;63883;48.996;20.804;2023-11-19T14:33:42;6.93;;;4.10;;
75289;SDS011;63883;48.996;20.804;2023-11-19T14:36:08;8.73;;;4.88;;
75289;SDS011;63883;48.996;20.804;2023-11-19T14:38:34;17.20;;;7.47;;
75289;SDS011;63883;48.996;20.804;2023-11-19T14:41:00;6.88;;;4.30;;
75289;SDS011;63883;48.996;20.804;2023-11-19T14:43:25;6.82;;;4.15;;
75289;SDS011;63883;48.996;20.804;2023-11-19T14:45:52;77.18;;;19.77;;
75289;SDS011;63883;48.996;20.804;2023-11-19T14:48:18;75.57;;;22.35;;
75289;SDS011;63883;48.996;20.804;2023-11-19T14:50:44;42.55;;;13.20;;
75289;SDS011;63883;48.996;20.804;2023-11-19T14:53:10;63.22;;;18.05;;
75289;SDS011;63883;48.996;20.804;2023-11-19T14:55:36;53.20;;;19.00;;
75289;SDS011;63883;48.996;20.804;2023-11-19T14:58:02;46.38;;;19.50;;
75289;SDS011;63883;48.996;20.804;2023-11-19T15:00:28;33.75;;;13.63;;
75289;SDS011;63883;48.996;20.804;2023-11-19T15:02:54;59.40;;;18.75;;
75289;SDS011;63883;48.996;20.804;2023-11-19T15:05:21;70.18;;;28.40;;
75289;SDS011;63883;48.996;20.804;2023-11-19T15:07:48;32.25;;;14.07;;
75289;SDS011;63883;48.996;20.804;2023-11-19T15:10:13;51.22;;;22.30;;
75289;SDS011;63883;48.996;20.804;2023-11-19T15:12:39;32.00;;;15.43;;
75289;SDS011;63883;48.996;20.804;2023-11-19T15:15:07;37.85;;;18.17;;
75289;SDS011;63883;48.996;20.804;2023-11-19T15:17:40;36.58;;;15.45;;
75289;SDS011;63883;48.996;20.804;2023-11-19T15:20:05;39.63;;;16.30;;
75289;SDS011;63883;48.996;20.804;2023-11-19T15:22:32;21.77;;;10.25;;
75289;SDS011;63883;48.996;20.804;2023-11-19T15:24:58;12.70;;;7.25;;
75289;SDS011;63883;48.996;20.804;2023-11-19T15:27:23;13.77;;;7.40;;
75289;SDS011;63883;48.996;20.804;2023-11-19T15:29:49;15.60;;;7.97;;
75289;SDS011;63883;48.996;20.804;2023-11-19T15:32:15;26.05;;;11.27;;
75289;SDS011;63883;48.996;20.804;2023-11-19T15:34:41;34.20;;;13.88;;
75289;SDS011;63883;48.996;20.804;2023-11-19T15:37:07;28.00;;;13.40;;
75289;SDS011;63883;48.996;20.804;2023-11-19T15:39:33;36.45;;;16.73;;
75289;SDS011;63883;48.996;20.804;2023-11-19T15:42:01;37.17;;;17.17;;
75289;SDS011;63883;48.996;20.804;2023-11-19T15:44:28;33.78;;;15.52;;
75289;SDS011;63883;48.996;20.804;2023-11-19T15:46:54;55.50;;;18.95;;
75289;SDS011;63883;48.996;20.804;2023-11-19T15:49:20;57.85;;;19.33;;
75289;SDS011;63883;48.996;20.804;2023-11-19T15:51:46;62.60;;;21.30;;
75289;SDS011;63883;48.996;20.804;2023-11-19T15:54:12;86.70;;;24.98;;
75289;SDS011;63883;48.996;20.804;2023-11-19T15:56:38;61.15;;;20.80;;
75289;SDS011;63883;48.996;20.804;2023-11-19T15:59:04;38.75;;;16.05;;
75289;SDS011;63883;48.996;20.804;2023-11-19T16:01:30;26.98;;;12.90;;
75289;SDS011;63883;48.996;20.804;2023-11-19T16:03:56;27.45;;;13.18;;
75289;SDS011;63883;48.996;20.804;2023-11-19T16:06:22;22.63;;;11.65;;
75289;SDS011;63883;48.996;20.804;2023-11-19T16:08:48;24.58;;;12.77;;
75289;SDS011;63883;48.996;20.804;2023-11-19T16:11:15;23.42;;;11.70;;
75289;SDS011;63883;48.996;20.804;2023-11-19T16:13:42;21.40;;;11.23;;
75289;SDS011;63883;48.996;20.804;2023-11-19T16:16:09;19.67;;;10.50;;
75289;SDS011;63883;48.996;20.804;2023-11-19T16:18:35;20.85;;;10.32;;
75289;SDS011;63883;48.996;20.804;2023-11-19T16:21:00;21.25;;;10.98;;
75289;SDS011;63883;48.996;20.804;2023-11-19T16:23:27;20.13;;;10.55;;
75289;SDS011;63883;48.996;20.804;2023-11-19T16:25:53;20.25;;;11.68;;
75289;SDS011;63883;48.996;20.804;2023-11-19T16:28:18;19.00;;;9.93;;
75289;SDS011;63883;48.996;20.804;2023-11-19T16:30:44;15.35;;;9.35;;
75289;SDS011;63883;48.996;20.804;2023-11-19T16:33:11;12.93;;;7.13;;
75289;SDS011;63883;48.996;20.804;2023-11-19T16:35:37;9.05;;;5.75;;
75289;SDS011;63883;48.996;20.804;2023-11-19T16:38:03;13.50;;;7.03;;
75289;SDS011;63883;48.996;20.804;2023-11-19T16:42:58;186.65;;;54.50;;
75289;SDS011;63883;48.996;20.804;2023-11-19T16:45:24;59.38;;;21.70;;
75289;SDS011;63883;48.996;20.804;2023-11-19T16:47:50;45.97;;;17.67;;
75289;SDS011;63883;48.996;20.804;2023-11-19T16:50:16;22.33;;;11.05;;
75289;SDS011;63883;48.996;20.804;2023-11-19T16:52:43;18.63;;;11.13;;
75289;SDS011;63883;48.996;20.804;2023-11-19T16:55:09;20.38;;;9.63;;
75289;SDS011;63883;48.996;20.804;2023-11-19T16:57:38;45.67;;;18.48;;
75289;SDS011;63883;48.996;20.804;2023-11-19T17:00:05;35.90;;;14.45;;
75289;SDS011;63883;48.996;20.804;2023-11-19T17:02:32;22.13;;;10.10;;
75289;SDS011;63883;48.996;20.804;2023-11-19T17:04:58;22.67;;;12.02;;
75289;SDS011;63883;48.996;20.804;2023-11-19T17:07:24;22.33;;;11.98;;
75289;SDS011;63883;48.996;20.804;2023-11-19T17:09:51;32.60;;;15.50;;
75289;SDS011;63883;48.996;20.804;2023-11-19T17:12:17;40.15;;;19.95;;
75289;SDS011;63883;48.996;20.804;2023-11-19T17:14:43;40.92;;;20.17;;
75289;SDS011;63883;48.996;20.804;2023-11-19T17:17:10;29.42;;;14.32;;
75289;SDS011;63883;48.996;20.804;2023-11-19T17:19:37;26.85;;;14.40;;
75289;SDS011;63883;48.996;20.804;2023-11-19T17:22:02;26.95;;;14.48;;
75289;SDS011;63883;48.996;20.804;2023-11-19T17:24:29;28.30;;;13.10;;
75289;SDS011;63883;48.996;20.804;2023-11-19T17:26:54;28.25;;;13.38;;
75289;SDS011;63883;48.996;20.804;2023-11-19T17:29:21;28.10;;;13.35;;
75289;SDS011;63883;48.996;20.804;2023-11-19T17:31:47;19.02;;;9.98;;
75289;SDS011;63883;48.996;20.804;2023-11-19T17:34:13;16.50;;;8.60;;
75289;SDS011;63883;48.996;20.804;2023-11-19T17:36:39;16.90;;;8.80;;
75289;SDS011;63883;48.996;20.804;2023-11-19T17:39:06;21.27;;;11.32;;
75289;SDS011;63883;48.996;20.804;2023-11-19T17:41:32;26.25;;;12.68;;
75289;SDS011;63883;48.996;20.804;2023-11-19T17:43:58;30.83;;;15.63;;
75289;SDS011;63883;48.996;20.804;2023-11-19T17:46:24;27.23;;;12.43;;
75289;SDS011;63883;48.996;20.804;2023-11-19T17:48:51;22.92;;;11.32;;
75289;SDS011;63883;48.996;20.804;2023-11-19T17:51:17;22.17;;;10.65;;
75289;SDS011;63883;48.996;20.804;2023-11-19T17:53:45;16.17;;;8.60;;
75289;SDS011;63883;48.996;20.804;2023-11-19T17:56:11;13.65;;;8.20;;
75289;SDS011;63883;48.996;20.804;2023-11-19T17:58:37;17.33;;;8.57;;
75289;SDS011;63883;48.996;20.804;2023-11-19T18:01:03;17.23;;;8.70;;
75289;SDS011;63883;48.996;20.804;2023-11-19T18:03:30;18.23;;;9.57;;
75289;SDS011;63883;48.996;20.804;2023-11-19T18:05:55;28.50;;;13.85;;
75289;SDS011;63883;48.996;20.804;2023-11-19T18:08:21;18.63;;;10.00;;
75289;SDS011;63883;48.996;20.804;2023-11-19T18:10:47;46.10;;;20.25;;
75289;SDS011;63883;48.996;20.804;2023-11-19T18:13:13;52.33;;;23.13;;
75289;SDS011;63883;48.996;20.804;2023-11-19T18:15:39;37.03;;;17.92;;
75289;SDS011;63883;48.996;20.804;2023-11-19T18:18:07;33.60;;;16.88;;
75289;SDS011;63883;48.996;20.804;2023-11-19T18:20:34;34.50;;;16.30;;
75289;SDS011;63883;48.996;20.804;2023-11-19T18:23:01;30.33;;;16.00;;
75289;SDS011;63883;48.996;20.804;2023-11-19T18:25:27;22.17;;;11.60;;
75289;SDS011;63883;48.996;20.804;2023-11-19T18:27:53;20.67;;;10.88;;
75289;SDS011;63883;48.996;20.804;2023-11-19T18:30:19;21.95;;;11.25;;
75289;SDS011;63883;48.996;20.804;2023-11-19T18:32:45;18.27;;;10.13;;
75289;SDS011;63883;48.996;20.804;2023-11-19T18:35:11;21.80;;;11.07;;
75289;SDS011;63883;48.996;20.804;2023-11-19T18:37:40;24.25;;;12.55;;
75289;SDS011;63883;48.996;20.804;2023-11-19T18:40:06;21.55;;;10.85;;
75289;SDS011;63883;48.996;20.804;2023-11-19T18:42:39;18.85;;;9.10;;
75289;SDS011;63883;48.996;20.804;2023-11-19T18:45:05;13.98;;;7.85;;
75289;SDS011;63883;48.996;20.804;2023-11-19T18:47:33;17.60;;;9.13;;
75289;SDS011;63883;48.996;20.804;2023-11-19T18:49:58;60.85;;;23.08;;
75289;SDS011;63883;48.996;20.804;2023-11-19T18:52:28;30.77;;;15.25;;
75289;SDS011;63883;48.996;20.804;2023-11-19T18:54:54;23.77;;;12.10;;
75289;SDS011;63883;48.996;20.804;2023-11-19T18:57:20;21.38;;;11.18;;
75289;SDS011;63883;48.996;20.804;2023-11-19T18:59:46;16.00;;;8.73;;
75289;SDS011;63883;48.996;20.804;2023-11-19T19:02:13;23.25;;;10.95;;
75289;SDS011;63883;48.996;20.804;2023-11-19T19:04:40;22.48;;;10.85;;
75289;SDS011;63883;48.996;20.804;2023-11-19T19:07:06;15.90;;;7.88;;
75289;SDS011;63883;48.996;20.804;2023-11-19T19:09:34;15.93;;;8.65;;
75289;SDS011;63883;48.996;20.804;2023-11-19T19:12:03;25.67;;;13.68;;
75289;SDS011;63883;48.996;20.804;2023-11-19T19:14:29;28.13;;;15.05;;
75289;SDS011;63883;48.996;20.804;2023-11-19T19:16:55;26.23;;;13.38;;
75289;SDS011;63883;48.996;20.804;2023-11-19T19:19:22;35.38;;;14.07;;
75289;SDS011;63883;48.996;20.804;2023-11-19T19:21:49;30.95;;;13.77;;
75289;SDS011;63883;48.996;20.804;2023-11-19T19:24:15;18.15;;;9.82;;
75289;SDS011;63883;48.996;20.804;2023-11-19T19:26:41;18.98;;;9.80;;
75289;SDS011;63883;48.996;20.804;2023-11-19T19:29:07;19.92;;;11.48;;
75289;SDS011;63883;48.996;20.804;2023-11-19T19:31:33;16.80;;;8.68;;
75289;SDS011;63883;48.996;20.804;2023-11-19T19:33:59;14.30;;;7.72;;
75289;SDS011;63883;48.996;20.804;2023-11-19T19:36:26;10.30;;;5.40;;
75289;SDS011;63883;48.996;20.804;2023-11-19T19:38:58;9.40;;;5.22;;
75289;SDS011;63883;48.996;20.804;2023-11-19T19:41:32;11.82;;;6.90;;
75289;SDS011;63883;48.996;20.804;2023-11-19T19:43:57;8.45;;;4.43;;
75289;SDS011;63883;48.996;20.804;2023-11-19T19:46:23;11.45;;;5.85;;
75289;SDS011;63883;48.996;20.804;2023-11-19T19:48:49;9.45;;;5.85;;
75289;SDS011;63883;48.996;20.804;2023-11-19T19:51:18;10.43;;;6.20;;
75289;SDS011;63883;48.996;20.804;2023-11-19T19:53:45;10.70;;;6.03;;
75289;SDS011;63883;48.996;20.804;2023-11-19T19:56:11;13.70;;;7.68;;
75289;SDS011;63883;48.996;20.804;2023-11-19T19:58:37;13.27;;;6.47;;
75289;SDS011;63883;48.996;20.804;2023-11-19T20:01:05;16.60;;;9.02;;
75289;SDS011;63883;48.996;20.804;2023-11-19T20:03:34;33.40;;;18.10;;
75289;SDS011;63883;48.996;20.804;2023-11-19T20:06:04;25.73;;;13.43;;
75289;SDS011;63883;48.996;20.804;2023-11-19T20:08:33;25.08;;;14.18;;
75289;SDS011;63883;48.996;20.804;2023-11-19T20:10:59;25.92;;;13.43;;
75289;SDS011;63883;48.996;20.804;2023-11-19T20:13:26;28.02;;;13.52;;
75289;SDS011;63883;48.996;20.804;2023-11-19T20:15:53;68.47;;;25.73;;
75289;SDS011;63883;48.996;20.804;2023-11-19T20:18:19;48.97;;;20.50;;
75289;SDS011;63883;48.996;20.804;2023-11-19T20:20:46;38.60;;;17.35;;
75289;SDS011;63883;48.996;20.804;2023-11-19T20:23:13;33.75;;;16.13;;
75289;SDS011;63883;48.996;20.804;2023-11-19T20:25:38;40.70;;;18.67;;
75289;SDS011;63883;48.996;20.804;2023-11-19T20:28:04;98.43;;;33.03;;
75289;SDS011;63883;48.996;20.804;2023-11-19T20:30:31;90.90;;;31.48;;
75289;SDS011;63883;48.996;20.804;2023-11-19T20:32:56;71.22;;;26.23;;
75289;SDS011;63883;48.996;20.804;2023-11-19T20:35:22;68.10;;;24.48;;
75289;SDS011;63883;48.996;20.804;2023-11-19T20:37:48;40.22;;;16.42;;
75289;SDS011;63883;48.996;20.804;2023-11-19T20:40:13;64.80;;;25.38;;
75289;SDS011;63883;48.996;20.804;2023-11-19T20:42:39;65.25;;;25.95;;
75289;SDS011;63883;48.996;20.804;2023-11-19T20:45:06;44.92;;;19.30;;
75289;SDS011;63883;48.996;20.804;2023-11-19T20:47:36;55.35;;;21.67;;
75289;SDS011;63883;48.996;20.804;2023-11-19T20:50:03;55.97;;;22.55;;
75289;SDS011;63883;48.996;20.804;2023-11-19T20:52:35;43.55;;;19.35;;
75289;SDS011;63883;48.996;20.804;2023-11-19T20:55:04;81.43;;;28.35;;
75289;SDS011;63883;48.996;20.804;2023-11-19T20:57:30;98.22;;;34.17;;
75289;SDS011;63883;48.996;20.804;2023-11-19T20:59:57;58.97;;;23.92;;
75289;SDS011;63883;48.996;20.804;2023-11-19T21:02:22;44.13;;;18.20;;
75289;SDS011;63883;48.996;20.804;2023-11-19T21:04:48;32.58;;;16.05;;
75289;SDS011;63883;48.996;20.804;2023-11-19T21:07:14;21.95;;;11.07;;
75289;SDS011;63883;48.996;20.804;2023-11-19T21:09:40;29.77;;;14.25;;
75289;SDS011;63883;48.996;20.804;2023-11-19T21:12:06;70.03;;;26.08;;
75289;SDS011;63883;48.996;20.804;2023-11-19T21:14:50;52.83;;;23.27;;
75289;SDS011;63883;48.996;20.804;2023-11-19T21:17:15;51.67;;;20.08;;
75289;SDS011;63883;48.996;20.804;2023-11-19T21:19:41;52.45;;;20.50;;
75289;SDS011;63883;48.996;20.804;2023-11-19T21:22:11;52.40;;;21.02;;
75289;SDS011;63883;48.996;20.804;2023-11-19T21:24:37;45.78;;;19.15;;
75289;SDS011;63883;48.996;20.804;2023-11-19T21:27:03;24.52;;;12.30;;
75289;SDS011;63883;48.996;20.804;2023-11-19T21:29:31;27.52;;;13.45;;
75289;SDS011;63883;48.996;20.804;2023-11-19T21:31:58;43.08;;;17.20;;
75289;SDS011;63883;48.996;20.804;2023-11-19T21:34:23;45.95;;;19.88;;
75289;SDS011;63883;48.996;20.804;2023-11-19T21:36:51;44.92;;;20.33;;
75289;SDS011;63883;48.996;20.804;2023-11-19T21:39:17;42.85;;;18.45;;
75289;SDS011;63883;48.996;20.804;2023-11-19T21:41:45;43.60;;;18.15;;
75289;SDS011;63883;48.996;20.804;2023-11-19T21:44:12;43.72;;;19.98;;
75289;SDS011;63883;48.996;20.804;2023-11-19T21:46:37;51.53;;;21.38;;
75289;SDS011;63883;48.996;20.804;2023-11-19T21:49:03;47.63;;;20.70;;
75289;SDS011;63883;48.996;20.804;2023-11-19T21:51:29;52.03;;;21.50;;
75289;SDS011;63883;48.996;20.804;2023-11-19T21:53:54;47.30;;;19.55;;
75289;SDS011;63883;48.996;20.804;2023-11-19T21:56:20;39.42;;;18.73;;
75289;SDS011;63883;48.996;20.804;2023-11-19T21:58:45;35.20;;;17.88;;
75289;SDS011;63883;48.996;20.804;2023-11-19T22:01:11;31.80;;;14.43;;
75289;SDS011;63883;48.996;20.804;2023-11-19T22:03:37;25.42;;;11.90;;
75289;SDS011;63883;48.996;20.804;2023-11-19T22:06:03;22.42;;;10.63;;
75289;SDS011;63883;48.996;20.804;2023-11-19T22:08:29;27.23;;;13.45;;
75289;SDS011;63883;48.996;20.804;2023-11-19T22:10:57;25.08;;;10.95;;
75289;SDS011;63883;48.996;20.804;2023-11-19T22:13:23;18.73;;;9.80;;
75289;SDS011;63883;48.996;20.804;2023-11-19T22:15:49;23.48;;;11.70;;
75289;SDS011;63883;48.996;20.804;2023-11-19T22:18:14;24.48;;;12.02;;
75289;SDS011;63883;48.996;20.804;2023-11-19T22:20:40;25.67;;;11.93;;
75289;SDS011;63883;48.996;20.804;2023-11-19T22:23:05;30.33;;;15.20;;
75289;SDS011;63883;48.996;20.804;2023-11-19T22:25:31;32.03;;;15.77;;
75289;SDS011;63883;48.996;20.804;2023-11-19T22:27:57;22.27;;;10.85;;
75289;SDS011;63883;48.996;20.804;2023-11-19T22:30:23;20.83;;;10.20;;
75289;SDS011;63883;48.996;20.804;2023-11-19T22:32:48;21.45;;;11.00;;
75289;SDS011;63883;48.996;20.804;2023-11-19T22:35:14;18.92;;;9.10;;
75289;SDS011;63883;48.996;20.804;2023-11-19T22:37:40;19.20;;;9.32;;
75289;SDS011;63883;48.996;20.804;2023-11-19T22:40:06;19.73;;;9.50;;
75289;SDS011;63883;48.996;20.804;2023-11-19T22:42:32;18.83;;;9.00;;
75289;SDS011;63883;48.996;20.804;2023-11-19T22:45:00;21.98;;;10.35;;
75289;SDS011;63883;48.996;20.804;2023-11-19T22:47:27;23.80;;;11.60;;
75289;SDS011;63883;48.996;20.804;2023-11-19T22:49:57;24.40;;;11.68;;
75289;SDS011;63883;48.996;20.804;2023-11-19T22:52:23;31.25;;;12.88;;
75289;SDS011;63883;48.996;20.804;2023-11-19T22:54:49;25.33;;;11.68;;
75289;SDS011;63883;48.996;20.804;2023-11-19T22:57:14;22.52;;;11.02;;
75289;SDS011;63883;48.996;20.804;2023-11-19T22:59:40;25.95;;;12.65;;
75289;SDS011;63883;48.996;20.804;2023-11-19T23:02:05;25.65;;;12.68;;
75289;SDS011;63883;48.996;20.804;2023-11-19T23:04:31;23.05;;;12.43;;
75289;SDS011;63883;48.996;20.804;2023-11-19T23:06:57;25.45;;;12.15;;
75289;SDS011;63883;48.996;20.804;2023-11-19T23:09:23;26.63;;;12.20;;
75289;SDS011;63883;48.996;20.804;2023-11-19T23:11:48;39.20;;;17.83;;
75289;SDS011;63883;48.996;20.804;2023-11-19T23:14:14;30.77;;;13.55;;
75289;SDS011;63883;48.996;20.804;2023-11-19T23:16:40;26.25;;;12.48;;
75289;SDS011;63883;48.996;20.804;2023-11-19T23:19:06;33.83;;;15.85;;
75289;SDS011;63883;48.996;20.804;2023-11-19T23:21:34;37.72;;;16.20;;
75289;SDS011;63883;48.996;20.804;2023-11-19T23:24:08;48.45;;;21.67;;
75289;SDS011;63883;48.996;20.804;2023-11-19T23:26:34;38.70;;;18.08;;
75289;SDS011;63883;48.996;20.804;2023-11-19T23:28:59;25.52;;;12.43;;
75289;SDS011;63883;48.996;20.804;2023-11-19T23:31:25;23.73;;;11.32;;
75289;SDS011;63883;48.996;20.804;2023-11-19T23:33:51;33.13;;;15.55;;
75289;SDS011;63883;48.996;20.804;2023-11-19T23:36:16;33.78;;;17.25;;
75289;SDS011;63883;48.996;20.804;2023-11-19T23:38:42;25.33;;;12.27;;
75289;SDS011;63883;48.996;20.804;2023-11-19T23:41:08;26.05;;;12.82;;
75289;SDS011;63883;48.996;20.804;2023-11-19T23:43:33;22.33;;;10.80;;
75289;SDS011;63883;48.996;20.804;2023-11-19T23:45:59;17.88;;;9.20;;
75289;SDS011;63883;48.996;20.804;2023-11-19T23:48:25;17.33;;;9.38;;
75289;SDS011;63883;48.996;20.804;2023-11-19T23:50:51;18.63;;;8.50;;
75289;SDS011;63883;48.996;20.804;2023-11-19T23:53:19;40.08;;;16.83;;
75289;SDS011;63883;48.996;20.804;2023-11-19T23:55:45;19.10;;;10.52;;
75289;SDS011;63883;48.996;20.804;2023-11-19T23:58:11;17.02;;;9.43;;
